createdAt,value
2018-05-07T00:02:19.960Z,2.30
2018-05-07T00:04:47.684Z,2.40
2018-05-07T00:07:15.966Z,2.13
2018-05-07T00:09:43.537Z,2.50
2018-05-07T00:12:10.964Z,2.40
2018-05-07T00:14:38.436Z,2.80
2018-05-07T00:17:06.729Z,2.30
2018-05-07T00:19:34.212Z,2.43
2018-05-07T00:22:01.707Z,2.70
2018-05-07T00:24:29.218Z,2.50
2018-05-07T00:26:56.728Z,2.63
2018-05-07T00:29:25.034Z,2.47
2018-05-07T00:31:52.595Z,2.50
2018-05-07T00:34:20.840Z,2.30
2018-05-07T00:36:49.109Z,2.40
2018-05-07T00:39:16.612Z,2.80
2018-05-07T00:41:44.144Z,2.50
2018-05-07T00:44:12.392Z,2.70
2018-05-07T00:46:39.880Z,2.70
2018-05-07T00:49:08.164Z,2.63
2018-05-07T00:51:36.466Z,2.63
2018-05-07T00:54:04.027Z,3.03
2018-05-07T00:56:32.436Z,2.40
2018-05-07T00:59:00.018Z,2.40
2018-05-07T01:01:28.316Z,2.80
2018-05-07T01:03:55.813Z,2.50
2018-05-07T01:06:23.358Z,2.60
2018-05-07T01:08:50.877Z,2.20
2018-05-07T01:11:19.297Z,2.83
2018-05-07T01:13:46.817Z,3.10
2018-05-07T01:16:15.084Z,2.90
2018-05-07T01:18:43.681Z,3.10
2018-05-07T01:21:11.945Z,2.50
2018-05-07T01:23:40.233Z,2.63
2018-05-07T01:26:08.525Z,2.30
2018-05-07T01:28:36.143Z,3.00
2018-05-07T01:31:03.632Z,2.23
2018-05-07T01:33:31.125Z,1.90
2018-05-07T01:35:58.652Z,2.60
2018-05-07T01:38:26.965Z,2.50
2018-05-07T01:40:54.501Z,2.10
2018-05-07T01:49:04.377Z,2.87
2018-05-07T01:54:24.059Z,2.10
2018-05-07T01:56:52.317Z,2.47
2018-05-07T01:59:19.830Z,2.63
2018-05-07T02:01:47.383Z,2.83
2018-05-07T02:04:14.867Z,3.27
2018-05-07T02:06:42.473Z,2.63
2018-05-07T02:09:10.741Z,2.37
2018-05-07T02:11:39.007Z,2.87
2018-05-07T02:14:06.511Z,2.47
2018-05-07T02:16:34.039Z,2.47
2018-05-07T02:19:02.319Z,2.83
2018-05-07T02:21:29.807Z,2.63
2018-05-07T02:23:57.337Z,2.60
2018-05-07T02:26:24.822Z,3.17
2018-05-07T02:28:52.319Z,2.53
2018-05-07T02:31:20.696Z,2.87
2018-05-07T02:33:49.771Z,2.90
2018-05-07T02:36:17.275Z,2.70
2018-05-07T02:38:45.592Z,3.00
2018-05-07T02:41:13.215Z,2.70
2018-05-07T02:43:40.753Z,3.20
2018-05-07T02:46:08.262Z,3.00
2018-05-07T02:48:35.812Z,3.13
2018-05-07T02:51:03.293Z,2.47
2018-05-07T02:53:30.860Z,3.27
2018-05-07T02:55:58.455Z,2.20
2018-05-07T02:58:26.742Z,2.53
2018-05-07T03:00:55.115Z,2.23
2018-05-07T03:03:23.369Z,3.20
2018-05-07T03:05:50.953Z,2.67
2018-05-07T03:08:19.213Z,2.50
2018-05-07T03:10:46.731Z,2.23
2018-05-07T03:13:14.853Z,2.77
2018-05-07T03:15:43.130Z,2.70
2018-05-07T03:18:11.417Z,2.30
2018-05-07T03:20:38.955Z,2.80
2018-05-07T03:23:06.444Z,2.70
2018-05-07T03:25:33.936Z,2.50
2018-05-07T03:28:02.400Z,2.43
2018-05-07T03:30:29.879Z,2.50
2018-05-07T03:32:57.383Z,2.70
2018-05-07T03:35:25.764Z,2.63
2018-05-07T03:37:53.290Z,2.90
2018-05-07T03:40:20.784Z,2.90
2018-05-07T03:42:48.442Z,2.30
2018-05-07T03:45:16.712Z,2.77
2018-05-07T03:47:44.970Z,2.47
2018-05-07T03:50:12.464Z,2.80
2018-05-07T03:52:40.009Z,3.40
2018-05-07T03:55:08.284Z,2.50
2018-05-07T03:57:36.560Z,2.30
2018-05-07T04:00:05.469Z,2.43
2018-05-07T04:02:32.962Z,2.50
2018-05-07T04:05:00.556Z,2.50
2018-05-07T04:07:28.850Z,2.73
2018-05-07T04:09:57.157Z,2.63
2018-05-07T04:12:24.671Z,3.00
2018-05-07T04:14:52.167Z,2.93
2018-05-07T04:17:31.705Z,2.47
2018-05-07T04:20:11.230Z,2.47
2018-05-07T04:22:51.427Z,2.67
2018-05-07T04:25:18.977Z,2.67
2018-05-07T04:27:46.585Z,2.80
2018-05-07T04:30:14.873Z,2.93
2018-05-07T04:32:43.123Z,3.60
2018-05-07T04:35:10.617Z,2.70
2018-05-07T04:37:38.259Z,2.80
2018-05-07T04:40:06.559Z,2.70
2018-05-07T04:42:34.049Z,2.77
2018-05-07T04:45:01.558Z,2.83
2018-05-07T04:47:29.811Z,3.00
2018-05-07T04:49:57.337Z,2.90
2018-05-07T04:52:24.849Z,3.00
2018-05-07T04:54:53.115Z,3.00
2018-05-07T04:57:21.589Z,2.90
2018-05-07T04:59:49.075Z,3.13
2018-05-07T05:02:16.602Z,3.77
2018-05-07T05:04:44.077Z,3.60
2018-05-07T05:07:12.484Z,2.60
2018-05-07T05:09:39.942Z,2.90
2018-05-07T05:12:07.462Z,2.70
2018-05-07T05:14:35.764Z,3.13
2018-05-07T05:17:03.262Z,2.83
2018-05-07T05:19:30.751Z,3.13
2018-05-07T05:21:59.120Z,2.60
2018-05-07T05:24:27.619Z,3.50
2018-05-07T05:26:55.904Z,2.80
2018-05-07T05:29:24.175Z,3.27
2018-05-07T05:31:51.739Z,3.33
2018-05-07T05:34:19.236Z,3.67
2018-05-07T05:36:46.780Z,2.80
2018-05-07T05:39:14.294Z,3.60
2018-05-07T05:41:44.134Z,4.10
2018-05-07T05:44:12.408Z,3.50
2018-05-07T05:46:39.906Z,3.60
2018-05-07T05:49:07.438Z,3.87
2018-05-07T05:51:35.144Z,3.40
2018-05-07T05:54:04.167Z,3.53
2018-05-07T05:56:32.475Z,3.00
2018-05-07T05:58:59.981Z,3.23
2018-05-07T06:01:27.468Z,3.03
2018-05-07T06:03:55.008Z,2.80
2018-05-07T06:06:32.451Z,3.27
2018-05-07T06:09:00.822Z,2.90
2018-05-07T06:11:29.105Z,2.93
2018-05-07T06:13:56.666Z,3.23
2018-05-07T06:16:24.159Z,3.13
2018-05-07T06:18:52.722Z,3.13
2018-05-07T06:21:20.243Z,3.20
2018-05-07T06:23:47.720Z,3.17
2018-05-07T06:26:15.374Z,3.07
2018-05-07T06:28:42.886Z,3.20
2018-05-07T06:31:11.154Z,3.03
2018-05-07T06:33:39.404Z,3.30
2018-05-07T06:36:06.949Z,3.03
2018-05-07T06:38:34.453Z,2.53
2018-05-07T06:41:02.757Z,3.17
2018-05-07T06:43:30.260Z,3.27
2018-05-07T06:45:57.925Z,2.40
2018-05-07T06:48:26.090Z,3.10
2018-05-07T06:50:54.381Z,2.60
2018-05-07T06:53:21.966Z,2.70
2018-05-07T06:55:50.245Z,2.30
2018-05-07T06:58:17.740Z,2.80
2018-05-07T07:00:45.250Z,2.47
2018-05-07T07:03:13.527Z,2.70
2018-05-07T07:05:41.769Z,2.30
2018-05-07T07:08:09.668Z,2.27
2018-05-07T07:10:37.821Z,2.07
2018-05-07T07:13:05.425Z,2.40
2018-05-07T07:15:32.921Z,2.37
2018-05-07T07:18:00.431Z,2.57
2018-05-07T07:20:28.060Z,2.33
2018-05-07T07:22:55.560Z,2.30
2018-05-07T07:25:23.039Z,2.50
2018-05-07T07:27:50.646Z,2.23
2018-05-07T07:30:18.947Z,2.20
2018-05-07T07:32:46.464Z,4.93
2018-05-07T07:35:13.953Z,4.50
2018-05-07T07:37:41.441Z,5.37
2018-05-07T07:40:09.077Z,6.43
2018-05-07T07:42:36.557Z,5.40
2018-05-07T07:45:04.172Z,5.03
2018-05-07T07:47:32.415Z,6.33
2018-05-07T07:49:59.890Z,4.07
2018-05-07T07:52:27.448Z,5.20
2018-05-07T07:54:54.921Z,6.70
2018-05-07T07:57:23.188Z,4.20
2018-05-07T07:59:51.428Z,4.30
2018-05-07T08:02:18.971Z,2.67
2018-05-07T08:04:46.485Z,2.60
2018-05-07T08:07:15.760Z,2.80
2018-05-07T08:09:44.170Z,2.20
2018-05-07T08:12:12.760Z,2.50
2018-05-07T08:14:40.213Z,2.60
2018-05-07T08:17:08.775Z,2.77
2018-05-07T08:19:36.485Z,2.80
2018-05-07T08:22:04.759Z,2.60
2018-05-07T08:24:32.325Z,2.42
2018-05-07T08:26:59.853Z,2.10
2018-05-07T08:29:27.348Z,2.67
2018-05-07T08:31:54.850Z,2.27
2018-05-07T08:34:22.337Z,2.93
2018-05-07T08:36:50.595Z,2.70
2018-05-07T08:39:18.837Z,3.40
2018-05-07T08:41:46.360Z,3.07
2018-05-07T08:44:13.881Z,2.60
2018-05-07T08:46:42.140Z,2.77
2018-05-07T08:49:09.921Z,2.50
2018-05-07T08:51:38.360Z,3.37
2018-05-07T08:54:05.872Z,2.60
2018-05-07T08:56:33.398Z,3.17
2018-05-07T08:59:00.976Z,3.33
2018-05-07T09:01:29.509Z,2.70
2018-05-07T09:03:57.048Z,2.30
2018-05-07T09:06:24.560Z,2.60
2018-05-07T09:08:52.576Z,2.80
2018-05-07T09:11:20.082Z,2.60
2018-05-07T09:13:47.601Z,2.37
2018-05-07T09:16:15.115Z,2.80
2018-05-07T09:18:43.372Z,2.40
2018-05-07T09:21:10.892Z,2.67
2018-05-07T09:23:38.396Z,2.73
2018-05-07T09:26:06.772Z,2.60
2018-05-07T09:28:35.038Z,2.83
2018-05-07T09:31:02.552Z,2.13
2018-05-07T09:33:30.065Z,2.33
2018-05-07T09:35:57.565Z,2.50
2018-05-07T09:38:25.052Z,2.37
2018-05-07T09:40:52.584Z,3.40
2018-05-07T09:43:20.192Z,2.33
2018-05-07T09:45:47.696Z,2.63
2018-05-07T09:48:17.037Z,2.33
2018-05-07T09:53:49.518Z,3.10
2018-05-07T09:56:17.020Z,2.47
2018-05-07T09:58:53.110Z,2.87
2018-05-07T10:01:20.635Z,2.50
2018-05-07T10:03:48.901Z,2.90
2018-05-07T10:06:16.516Z,2.77
2018-05-07T10:08:44.024Z,2.67
2018-05-07T10:11:12.350Z,2.50
2018-05-07T10:13:39.891Z,2.40
2018-05-07T10:16:07.448Z,3.03
2018-05-07T10:18:34.954Z,2.40
2018-05-07T10:21:02.468Z,2.10
2018-05-07T10:23:30.015Z,2.67
2018-05-07T10:25:57.470Z,2.90
2018-05-07T10:28:25.013Z,2.40
2018-05-07T10:30:53.288Z,2.90
2018-05-07T10:33:21.558Z,2.63
2018-05-07T10:35:49.836Z,2.47
2018-05-07T10:38:18.081Z,2.60
2018-05-07T10:40:45.590Z,3.47
2018-05-07T10:43:13.094Z,2.60
2018-05-07T10:45:40.596Z,2.30
2018-05-07T10:48:08.907Z,2.20
2018-05-07T10:50:36.407Z,2.60
2018-05-07T10:53:03.879Z,2.80
2018-05-07T10:55:32.218Z,2.83
2018-05-07T10:57:59.711Z,2.60
2018-05-07T11:00:27.998Z,2.63
2018-05-07T11:02:56.276Z,3.37
2018-05-07T11:05:24.584Z,2.27
2018-05-07T11:07:52.060Z,2.93
2018-05-07T11:10:19.675Z,3.00
2018-05-07T11:12:47.303Z,2.77
2018-05-07T11:15:14.764Z,2.90
2018-05-07T11:17:42.528Z,2.67
2018-05-07T11:20:10.096Z,2.70
2018-05-07T11:22:38.362Z,2.40
2018-05-07T11:25:05.873Z,2.13
2018-05-07T11:27:33.380Z,2.50
2018-05-07T11:30:01.681Z,2.17
2018-05-07T11:32:29.928Z,2.40
2018-05-07T11:34:57.532Z,2.87
2018-05-07T11:37:25.033Z,2.30
2018-05-07T11:39:52.633Z,2.60
2018-05-07T11:42:20.891Z,2.80
2018-05-07T11:44:49.177Z,2.40
2018-05-07T11:47:17.512Z,2.40
2018-05-07T11:49:45.130Z,2.37
2018-05-07T11:52:13.474Z,2.57
2018-05-07T11:54:41.861Z,2.13
2018-05-07T11:57:09.392Z,2.33
2018-05-07T11:59:37.938Z,2.10
2018-05-07T12:02:05.514Z,2.37
2018-05-07T12:04:33.093Z,2.33
2018-05-07T12:07:00.742Z,2.03
2018-05-07T12:09:28.226Z,2.67
2018-05-07T12:11:55.734Z,2.03
2018-05-07T12:14:23.257Z,1.93
2018-05-07T12:16:50.862Z,2.20
2018-05-07T12:19:18.468Z,2.27
2018-05-07T12:21:45.997Z,2.33
2018-05-07T12:24:13.594Z,2.33
2018-05-07T12:26:41.148Z,2.57
2018-05-07T12:29:09.438Z,2.50
2018-05-07T12:31:37.926Z,2.60
2018-05-07T12:34:06.078Z,2.30
2018-05-07T12:36:33.634Z,2.60
2018-05-07T12:39:01.152Z,1.90
2018-05-07T12:41:28.704Z,2.23
2018-05-07T12:43:56.180Z,2.50
2018-05-07T12:46:23.676Z,2.03
2018-05-07T12:48:51.938Z,2.60
2018-05-07T12:51:19.517Z,2.63
2018-05-07T12:53:47.795Z,2.50
2018-05-07T12:56:16.077Z,1.80
2018-05-07T12:58:43.626Z,2.40
2018-05-07T13:01:12.161Z,2.40
2018-05-07T13:03:39.689Z,2.60
2018-05-07T13:06:07.233Z,2.43
2018-05-07T13:08:34.886Z,2.67
2018-05-07T13:11:03.151Z,2.20
2018-05-07T13:13:32.447Z,2.20
2018-05-07T13:15:59.981Z,2.60
2018-05-07T13:18:27.961Z,1.80
2018-05-07T13:20:55.429Z,2.20
2018-05-07T13:23:22.941Z,2.07
2018-05-07T13:25:50.460Z,1.90
2018-05-07T13:28:18.845Z,2.43
2018-05-07T13:30:47.137Z,2.17
2018-05-07T13:33:14.650Z,2.27
2018-05-07T13:35:42.128Z,2.33
2018-05-07T13:38:10.421Z,2.57
2018-05-07T13:40:38.091Z,2.30
2018-05-07T13:43:05.658Z,2.50
2018-05-07T13:45:33.142Z,1.90
2018-05-07T13:48:00.683Z,2.07
2018-05-07T13:50:38.117Z,1.93
2018-05-07T13:53:06.408Z,2.30
2018-05-07T13:55:34.684Z,1.90
2018-05-07T13:58:02.949Z,2.00
2018-05-07T14:00:30.448Z,1.90
2018-05-07T14:02:57.995Z,2.10
2018-05-07T14:05:25.766Z,1.93
2018-05-07T14:07:53.276Z,1.87
2018-05-07T14:10:20.771Z,2.53
2018-05-07T14:12:49.030Z,1.87
2018-05-07T14:15:17.301Z,1.80
2018-05-07T14:17:45.803Z,1.97
2018-05-07T14:20:13.510Z,2.10
2018-05-07T14:22:41.055Z,1.80
2018-05-07T14:25:08.574Z,1.73
2018-05-07T14:27:36.294Z,1.77
2018-05-07T14:30:03.794Z,1.90
2018-05-07T14:32:32.083Z,2.13
2018-05-07T14:34:59.602Z,1.90
2018-05-07T14:37:27.785Z,2.23
2018-05-07T14:39:55.453Z,2.00
2018-05-07T14:42:23.732Z,1.60
2018-05-07T14:44:51.995Z,1.90
2018-05-07T14:47:20.287Z,2.10
2018-05-07T14:49:48.529Z,2.40
2018-05-07T14:52:17.549Z,1.83
2018-05-07T14:54:45.811Z,1.90
2018-05-07T14:57:14.725Z,2.10
2018-05-07T14:59:43.013Z,1.83
2018-05-07T15:02:10.612Z,1.80
2018-05-07T15:04:38.211Z,2.40
2018-05-07T15:07:06.500Z,2.27
2018-05-07T15:09:34.045Z,1.70
2018-05-07T15:12:01.639Z,1.70
2018-05-07T15:14:29.273Z,2.00
2018-05-07T15:16:56.776Z,2.17
2018-05-07T15:19:24.261Z,1.80
2018-05-07T15:21:51.859Z,1.80
2018-05-07T15:24:20.093Z,1.97
2018-05-07T15:26:47.595Z,2.00
2018-05-07T15:29:15.278Z,1.93
2018-05-07T15:31:43.494Z,1.70
2018-05-07T15:34:11.079Z,2.00
2018-05-07T15:36:39.031Z,1.80
2018-05-07T15:39:06.516Z,2.93
2018-05-07T15:41:34.018Z,1.70
2018-05-07T15:44:01.543Z,2.33
2018-05-07T15:46:29.057Z,2.20
2018-05-07T15:48:57.455Z,2.03
2018-05-07T15:51:24.971Z,1.60
2018-05-07T15:53:52.523Z,1.73
2018-05-07T15:56:19.999Z,1.77
2018-05-07T15:58:48.405Z,1.90
2018-05-07T16:01:16.662Z,1.90
2018-05-07T16:03:44.179Z,1.67
2018-05-07T16:06:11.803Z,1.93
2018-05-07T16:08:40.073Z,2.07
2018-05-07T16:11:08.358Z,1.77
2018-05-07T16:13:35.884Z,2.10
2018-05-07T16:16:03.459Z,2.30
2018-05-07T16:18:31.724Z,1.93
2018-05-07T16:21:00.045Z,1.60
2018-05-07T16:23:27.762Z,1.73
2018-05-07T16:25:55.134Z,2.10
2018-05-07T16:28:23.429Z,1.57
2018-05-07T16:30:50.905Z,2.00
2018-05-07T16:36:12.138Z,1.70
2018-05-07T16:38:40.313Z,2.50
2018-05-07T16:41:07.957Z,2.23
2018-05-07T16:43:35.594Z,1.80
2018-05-07T16:46:03.271Z,2.00
2018-05-07T16:48:30.814Z,2.27
2018-05-07T16:50:59.061Z,2.30
2018-05-07T16:53:26.541Z,2.07
2018-05-07T16:55:54.847Z,2.00
2018-05-07T16:58:22.405Z,2.47
2018-05-07T17:00:49.916Z,1.90
2018-05-07T17:03:17.402Z,1.63
2018-05-07T17:05:44.973Z,1.83
2018-05-07T17:08:12.525Z,2.07
2018-05-07T17:10:40.066Z,2.63
2018-05-07T17:13:09.470Z,1.83
2018-05-07T17:15:37.130Z,2.40
2018-05-07T17:18:05.385Z,1.80
2018-05-07T17:20:32.900Z,1.93
2018-05-07T17:23:05.434Z,2.50
2018-05-07T17:25:33.776Z,2.23
2018-05-07T17:28:01.431Z,1.90
2018-05-07T17:30:28.973Z,1.90
2018-05-07T17:32:57.295Z,2.20
2018-05-07T17:35:26.351Z,2.13
2018-05-07T17:37:54.310Z,2.70
2018-05-07T17:40:22.093Z,1.60
2018-05-07T17:42:49.835Z,1.70
2018-05-07T17:45:32.907Z,1.90
2018-05-07T17:48:12.645Z,2.13
2018-05-07T17:50:40.191Z,1.70
2018-05-07T17:53:07.740Z,2.10
2018-05-07T17:55:36.093Z,1.80
2018-05-07T17:58:03.601Z,2.17
2018-05-07T18:00:31.166Z,2.27
2018-05-07T18:02:58.789Z,2.10
2018-05-07T18:05:26.335Z,2.20
2018-05-07T18:07:53.892Z,2.13
2018-05-07T18:10:21.820Z,1.93
2018-05-07T18:13:01.341Z,2.30
2018-05-07T18:15:35.765Z,2.47
2018-05-07T18:18:15.646Z,2.10
2018-05-07T18:20:43.175Z,2.13
2018-05-07T18:23:10.689Z,2.00
2018-05-07T18:25:38.246Z,2.10
2018-05-07T18:28:05.735Z,1.80
2018-05-07T18:30:34.005Z,2.37
2018-05-07T18:33:01.667Z,2.00
2018-05-07T18:35:29.153Z,2.37
2018-05-07T18:37:57.541Z,2.13
2018-05-07T18:40:25.077Z,2.20
2018-05-07T18:42:52.552Z,2.20
2018-05-07T18:45:20.925Z,2.77
2018-05-07T18:47:50.589Z,2.60
2018-05-07T18:50:18.153Z,2.20
2018-05-07T18:52:46.073Z,2.23
2018-05-07T18:55:14.348Z,2.13
2018-05-07T18:57:41.893Z,2.23
2018-05-07T19:00:10.293Z,1.90
2018-05-07T19:02:37.829Z,2.30
2018-05-07T19:05:06.403Z,2.33
2018-05-07T19:07:34.823Z,2.50
2018-05-07T19:10:13.404Z,2.17
2018-05-07T19:12:41.787Z,2.30
2018-05-07T19:15:10.100Z,2.27
2018-05-07T19:17:37.650Z,2.20
2018-05-07T19:20:05.805Z,2.23
2018-05-07T19:22:35.142Z,2.77
2018-05-07T19:25:03.603Z,2.47
2018-05-07T19:27:31.568Z,2.37
2018-05-07T19:29:59.229Z,2.60
2018-05-07T19:32:27.377Z,2.10
2018-05-07T19:34:56.737Z,2.03
2018-05-07T19:37:24.224Z,2.50
2018-05-07T19:39:52.153Z,2.20
2018-05-07T19:42:20.524Z,2.30
2018-05-07T19:44:48.048Z,2.53
2018-05-07T19:47:16.566Z,2.40
2018-05-07T19:49:44.775Z,2.53
2018-05-07T19:52:12.316Z,2.43
2018-05-07T19:54:39.937Z,2.43
2018-05-07T19:57:07.432Z,2.07
2018-05-07T19:59:34.966Z,2.10
2018-05-07T20:02:02.493Z,2.70
2018-05-07T20:04:30.875Z,2.27
2018-05-07T20:06:59.224Z,2.63
2018-05-07T20:09:26.813Z,2.30
2018-05-07T20:11:55.134Z,2.23
2018-05-07T20:14:22.840Z,2.23
2018-05-07T20:17:01.099Z,2.50
2018-05-07T20:19:29.721Z,2.77
2018-05-07T20:21:57.337Z,2.60
2018-05-07T20:24:25.133Z,2.30
2018-05-07T20:26:52.844Z,2.30
2018-05-07T20:29:24.045Z,2.23
2018-05-07T20:31:51.619Z,2.40
2018-05-07T20:34:19.893Z,2.50
2018-05-07T20:36:48.183Z,2.77
2018-05-07T20:39:16.496Z,2.40
2018-05-07T20:41:44.020Z,2.50
2018-05-07T20:44:11.627Z,2.63
2018-05-07T20:46:39.199Z,2.23
2018-05-07T20:49:07.496Z,2.73
2018-05-07T20:51:35.154Z,2.83
2018-05-07T20:54:03.377Z,2.53
2018-05-07T20:56:31.153Z,2.60
2018-05-07T20:58:58.729Z,3.10
2018-05-07T21:01:26.364Z,2.67
2018-05-07T21:03:54.347Z,2.93
2018-05-07T21:06:22.308Z,2.30
2018-05-07T21:08:49.856Z,2.80
2018-05-07T21:11:17.400Z,4.30
2018-05-07T21:13:45.493Z,2.77
2018-05-07T21:16:23.901Z,2.50
2018-05-07T21:18:51.403Z,2.73
2018-05-07T21:21:19.015Z,2.47
2018-05-07T21:23:46.649Z,2.57
2018-05-07T21:26:14.950Z,2.63
2018-05-07T21:28:42.460Z,2.50
2018-05-07T21:31:09.973Z,2.57
2018-05-07T21:33:37.495Z,2.53
2018-05-07T21:36:05.793Z,2.43
2018-05-07T21:38:33.313Z,2.80
2018-05-07T21:41:00.923Z,2.43
2018-05-07T21:43:28.426Z,3.03
2018-05-07T21:45:55.915Z,2.80
2018-05-07T21:48:23.578Z,2.97
2018-05-07T21:50:51.879Z,2.60
2018-05-07T21:53:19.705Z,2.50
2018-05-07T21:55:47.973Z,2.87
2018-05-07T21:58:16.268Z,2.73
2018-05-07T22:00:44.578Z,2.77
2018-05-07T22:03:12.087Z,2.73
2018-05-07T22:05:39.583Z,3.07
2018-05-07T22:08:07.161Z,2.50
2018-05-07T22:10:34.646Z,2.80
2018-05-07T22:13:02.949Z,2.17
2018-05-07T22:15:31.336Z,2.93
2018-05-07T22:17:58.848Z,2.10
2018-05-07T22:20:26.449Z,2.50
2018-05-07T22:22:54.818Z,2.50
2018-05-07T22:25:23.153Z,2.80
2018-05-07T22:27:50.641Z,2.77
2018-05-07T22:30:18.913Z,2.93
2018-05-07T22:32:48.129Z,2.67
2018-05-07T22:35:16.400Z,2.40
2018-05-07T22:37:44.683Z,2.40
2018-05-07T22:40:12.968Z,2.60
2018-05-07T22:42:41.051Z,2.73
2018-05-07T22:45:08.566Z,2.70
2018-05-07T22:47:36.141Z,2.20
2018-05-07T22:50:04.488Z,2.70
2018-05-07T22:52:32.116Z,2.97
2018-05-07T22:57:59.317Z,3.17
2018-05-07T23:00:26.845Z,2.77
2018-05-07T23:02:54.478Z,2.90
2018-05-07T23:05:22.882Z,2.80
2018-05-07T23:07:50.390Z,2.73
2018-05-07T23:10:17.925Z,2.77
2018-05-07T23:12:46.348Z,3.03
2018-05-07T23:15:14.619Z,2.60
2018-05-07T23:17:42.879Z,2.90
2018-05-07T23:20:10.427Z,2.90
2018-05-07T23:22:37.930Z,3.33
2018-05-07T23:25:05.468Z,2.80
2018-05-07T23:27:33.729Z,3.17
2018-05-07T23:30:01.242Z,2.67
2018-05-07T23:32:28.867Z,3.00
2018-05-07T23:34:57.169Z,2.77
2018-05-07T23:37:24.697Z,2.77
2018-05-07T23:39:52.957Z,2.90
2018-05-07T23:42:20.432Z,2.23
2018-05-07T23:44:48.753Z,3.07
2018-05-07T23:47:16.243Z,2.90
2018-05-07T23:49:43.836Z,2.70
2018-05-07T23:52:12.086Z,2.80
2018-05-07T23:54:39.568Z,3.20
2018-05-07T23:57:07.076Z,3.03
2018-05-07T23:59:34.608Z,3.10
